Preview of NWS' New Version of Forecast
This preview is not operational and should not be used for support decisions.

Terminal Aerodrome Forecast (TAF)

Issued by National Weather Service (NWS)

                            
965 
FTUS42 KKEY 271444 AAC
TAFEYW
TAF AMD
KEYW 271444Z 2715/2812 19018G26KT P6SM VCTS FEW018CB SCT025 BKN090
      TEMPO 2717/2720 21024G32KT 2SM +SHRA SCT008 BKN015 OVC035
     FM272000 19016G25KT P6SM VCSH SCT018 BKN100
      TEMPO 2720/2724 21022G32KT 2SM +SHRA SCT008 BKN015 OVC035=